Time;durP1;ratioP1;P1;durP2;ratioP2;P2;SDS_P1;SDS_P2;PMS_P1;PMS_P2;Temp;Humidity;BMP_temperature;BMP_pressure;BME280_temperature;BME280_humidity;BME280_pressure;Samples;Min_cycle;Max_cycle;Signal;HPM_P1;HPM_P2
2024/03/07 00:00:19;;;;;;;4.50;4.10;;;;;;;19.14;52.10;97873.56;5023944;28;20292;-26
2024/03/07 00:02:48;;;;;;;4.17;3.87;;;;;;;19.14;51.89;97882.06;5028129;28;20574;-25
2024/03/07 00:05:16;;;;;;;3.90;3.60;;;;;;;19.13;51.99;97870.13;5031084;28;20210;-25
2024/03/07 00:07:43;;;;;;;3.77;3.47;;;;;;;19.13;52.15;97874.38;5030784;28;20221;-24
2024/03/07 00:10:10;;;;;;;4.17;3.77;;;;;;;19.12;52.11;97870.94;5028413;28;20212;-24
2024/03/07 00:12:40;;;;;;;4.40;4.00;;;;;;;19.08;52.14;97866.53;5013785;28;20202;-25
2024/03/07 00:15:08;;;;;;;3.73;3.43;;;;;;;19.13;52.07;97872.66;5026718;28;20259;-25
2024/03/07 00:17:35;;;;;;;3.80;3.50;;;;;;;19.14;52.06;97873.56;5030978;28;20222;-24
2024/03/07 00:20:04;;;;;;;3.93;3.63;;;;;;;19.13;51.99;97866.72;5031020;28;20215;-24
2024/03/07 00:22:31;;;;;;;4.10;3.70;;;;;;;19.13;52.06;97872.66;5029598;28;20665;-24
2024/03/07 00:24:57;;;;;;;4.93;3.80;;;;;;;19.14;52.03;97865.91;5020689;28;20297;-25
2024/03/07 00:27:26;;;;;;;4.07;3.73;;;;;;;19.14;52.00;97868.47;5026483;28;20256;-25
2024/03/07 00:29:56;;;;;;;4.17;3.70;;;;;;;19.14;51.87;97866.78;5030855;28;20237;-25
2024/03/07 00:32:23;;;;;;;3.90;3.60;;;;;;;19.13;51.90;97866.72;5031231;28;20213;-24
2024/03/07 00:34:50;;;;;;;4.27;3.87;;;;;;;19.14;51.64;97863.34;5022658;28;20198;-24
2024/03/07 00:37:17;;;;;;;3.90;3.60;;;;;;;19.13;51.92;97871.81;5022615;28;20230;-24
2024/03/07 00:39:44;;;;;;;4.40;4.00;;;;;;;19.13;52.00;97870.13;5030941;28;20271;-24
2024/03/07 00:42:10;;;;;;;4.20;3.83;;;;;;;19.13;51.92;97866.72;5022286;28;20249;-24
2024/03/07 00:44:37;;;;;;;4.50;4.10;;;;;;;19.14;51.97;97866.78;5030829;28;20202;-24
2024/03/07 00:47:04;;;;;;;4.33;3.93;;;;;;;19.14;52.02;97866.78;5026348;28;20311;-25
2024/03/07 00:49:31;;;;;;;4.20;3.80;;;;;;;19.12;52.16;97859.84;5032242;28;20618;-25
2024/03/07 00:51:58;;;;;;;3.90;3.60;;;;;;;19.11;52.03;97864.09;5033017;28;20213;-25
2024/03/07 00:54:25;;;;;;;4.33;3.77;;;;;;;19.12;52.12;97863.28;5034170;28;20214;-25
2024/03/07 00:56:51;;;;;;;4.00;3.70;;;;;;;19.13;52.13;97864.16;5033825;28;20206;-24
2024/03/07 00:59:18;;;;;;;5.23;4.37;;;;;;;19.14;51.93;97861.69;5033938;28;20205;-24
2024/03/07 01:01:45;;;;;;;4.60;4.30;;;;;;;19.14;51.87;97865.91;5026294;28;20198;-24
2024/03/07 01:04:12;;;;;;;4.30;3.90;;;;;;;19.13;52.04;97862.47;5034419;28;20221;-24
2024/03/07 01:06:40;;;;;;;4.00;3.70;;;;;;;19.14;51.94;97859.16;5030379;28;20221;-25
2024/03/07 01:09:13;;;;;;;4.40;4.00;;;;;;;19.14;51.85;97865.91;5025651;28;20249;-24
2024/03/07 01:11:44;;;;;;;4.17;3.83;;;;;;;19.13;51.94;97864.16;5029286;28;20201;-24
2024/03/07 01:14:12;;;;;;;4.40;4.00;;;;;;;19.12;52.08;97855.66;5026369;28;20212;-25
2024/03/07 01:16:38;;;;;;;4.37;3.97;;;;;;;19.14;51.83;97860.81;5031587;28;20678;-25
2024/03/07 01:19:08;;;;;;;5.37;4.40;;;;;;;19.14;51.94;97860.81;5031679;28;20280;-24
2024/03/07 01:21:35;;;;;;;4.43;4.03;;;;;;;19.14;51.90;97848.06;5023191;28;20209;-25
2024/03/07 01:24:05;;;;;;;4.97;4.57;;;;;;;19.14;52.07;97855.72;5022586;28;20205;-24
2024/03/07 01:26:33;;;;;;;4.80;4.40;;;;;;;19.13;52.18;97852.28;5021351;28;20936;-25
2024/03/07 01:29:00;;;;;;;4.50;4.10;;;;;;;19.12;51.87;97849.66;5024367;28;20230;-24
2024/03/07 01:31:26;;;;;;;4.00;3.70;;;;;;;19.12;51.99;97845.47;5033450;28;20284;-25
2024/03/07 01:33:54;;;;;;;4.67;4.27;;;;;;;19.12;52.03;97837.81;5030284;28;20232;-24
2024/03/07 01:36:21;;;;;;;4.43;4.03;;;;;;;19.12;51.94;97837.81;5030871;28;20205;-24
2024/03/07 01:38:48;;;;;;;4.33;3.93;;;;;;;19.13;52.04;97839.56;5021316;28;20217;-24
2024/03/07 01:41:14;;;;;;;5.13;4.63;;;;;;;19.14;51.98;97830.25;5032178;28;20214;-24
2024/03/07 01:43:42;;;;;;;4.13;3.80;;;;;;;19.14;52.00;97830.25;5033066;28;20228;-24
2024/03/07 01:46:10;;;;;;;4.53;4.13;;;;;;;19.15;52.00;97834.53;5033468;28;20255;-25
2024/03/07 01:48:37;;;;;;;4.67;4.27;;;;;;;19.09;51.78;97816.41;5028108;28;20221;-24
2024/03/07 01:51:04;;;;;;;5.23;4.73;;;;;;;19.10;51.83;97815.63;5018999;28;20213;-25
2024/03/07 01:53:30;;;;;;;4.03;3.73;;;;;;;19.14;51.85;97822.59;5031877;28;20281;-24
2024/03/07 01:55:58;;;;;;;4.80;4.40;;;;;;;19.08;51.97;97823.22;5024787;28;20647;-25
2024/03/07 01:58:25;;;;;;;4.77;4.37;;;;;;;19.14;51.82;97826.03;5030542;28;20316;-24
2024/03/07 02:00:51;;;;;;;4.60;4.20;;;;;;;19.14;51.98;97823.47;5029485;28;20198;-24
2024/03/07 02:03:18;;;;;;;4.73;4.33;;;;;;;19.14;51.75;97825.16;5030170;28;20631;-30
2024/03/07 02:05:45;;;;;;;4.70;4.30;;;;;;;19.14;51.78;97823.47;5030238;28;20237;-25
2024/03/07 02:08:11;;;;;;;4.90;4.50;;;;;;;19.13;52.54;97820.88;5026192;28;20229;-24
2024/03/07 02:10:38;;;;;;;4.63;4.20;;;;;;;19.07;51.92;97807.88;5021892;28;20703;-24
2024/03/07 02:13:04;;;;;;;4.63;4.23;;;;;;;19.12;52.10;97814.88;5033230;28;20557;-25
2024/03/07 02:15:32;;;;;;;5.00;4.50;;;;;;;19.13;51.91;97820.88;5024219;28;20689;-25
2024/03/07 02:17:59;;;;;;;4.83;4.43;;;;;;;19.13;51.91;97816.63;5029490;28;20253;-24
2024/03/07 02:20:27;;;;;;;5.07;4.67;;;;;;;19.14;52.09;97820.03;5030622;28;20229;-24
2024/03/07 02:22:55;;;;;;;5.37;4.87;;;;;;;19.14;51.88;97809.84;5029712;28;20678;-24
2024/03/07 02:25:21;;;;;;;4.97;4.57;;;;;;;19.14;51.80;97809.84;5025370;28;20264;-25
2024/03/07 02:27:48;;;;;;;5.23;4.73;;;;;;;19.14;51.85;97807.31;5026722;28;20214;-24
2024/03/07 02:30:15;;;;;;;4.83;4.43;;;;;;;19.16;51.79;97805.72;5030984;28;20225;-25
2024/03/07 02:32:41;;;;;;;4.80;4.40;;;;;;;19.14;51.85;97802.22;5019722;28;20229;-24
2024/03/07 02:35:08;;;;;;;5.40;4.90;;;;;;;19.14;51.81;97804.75;5028454;28;20204;-24
2024/03/07 02:37:35;;;;;;;5.43;4.93;;;;;;;19.13;51.91;97801.34;5022707;28;20249;-24
2024/03/07 02:40:02;;;;;;;4.80;4.40;;;;;;;19.14;51.79;97803.09;5025099;28;20208;-24
2024/03/07 02:42:28;;;;;;;5.00;4.60;;;;;;;19.14;51.72;97798.00;5016221;28;20247;-24
2024/03/07 02:44:55;;;;;;;5.13;4.63;;;;;;;19.14;51.57;97798.00;5017914;28;20332;-24
2024/03/07 02:47:23;;;;;;;5.33;4.57;;;;;;;19.13;51.82;97791.16;5028965;28;20230;-24
2024/03/07 02:49:50;;;;;;;5.13;4.63;;;;;;;19.12;51.83;97796.19;5014660;28;20222;-25
2024/03/07 02:52:17;;;;;;;4.67;4.27;;;;;;;19.12;51.83;97798.72;5022006;28;20667;-24
2024/03/07 02:54:43;;;;;;;5.13;4.63;;;;;;;19.13;51.80;97791.16;5019848;28;20220;-25
2024/03/07 02:57:11;;;;;;;5.40;5.00;;;;;;;19.13;51.76;97792.84;5026364;28;20304;-24
2024/03/07 02:59:38;;;;;;;5.80;5.30;;;;;;;19.14;51.74;97786.94;5029456;28;20225;-24
2024/03/07 03:02:05;;;;;;;5.53;5.03;;;;;;;19.14;51.65;97789.47;5018934;28;20288;-24
2024/03/07 03:04:33;;;;;;;5.03;4.63;;;;;;;19.14;51.72;97795.47;5027704;28;20205;-24
2024/03/07 03:07:00;;;;;;;5.23;4.73;;;;;;;19.08;51.76;97779.03;5014528;28;20354;-24
2024/03/07 03:09:27;;;;;;;5.50;5.00;;;;;;;19.15;51.83;97801.41;5019137;28;20218;-25
2024/03/07 03:11:55;;;;;;;5.40;4.90;;;;;;;19.14;51.85;97800.56;5013688;28;20202;-23
2024/03/07 03:14:21;;;;;;;5.00;4.60;;;;;;;19.13;51.77;97796.25;5022098;28;20202;-25
2024/03/07 03:16:48;;;;;;;5.37;4.90;;;;;;;19.14;51.74;97797.13;5021975;28;20292;-25
2024/03/07 03:19:15;;;;;;;5.33;4.90;;;;;;;19.15;51.87;97801.41;5023302;28;20573;-24
2024/03/07 03:21:42;;;;;;;5.13;4.73;;;;;;;19.14;51.83;97804.75;5023593;28;20213;-24
2024/03/07 03:24:09;;;;;;;5.77;5.27;;;;;;;19.14;51.79;97805.66;5020388;28;20225;-25
2024/03/07 03:26:36;;;;;;;5.60;5.10;;;;;;;19.14;51.66;97804.75;5020687;28;20201;-24
2024/03/07 03:29:02;;;;;;;5.10;4.63;;;;;;;19.12;51.84;97804.69;5018125;28;20280;-24
2024/03/07 03:31:29;;;;;;;5.30;4.83;;;;;;;19.12;51.28;97807.25;5027987;28;20202;-24
2024/03/07 03:33:55;;;;;;;5.63;5.13;;;;;;;19.07;51.82;97795.97;5021590;28;20587;-25
2024/03/07 03:36:22;;;;;;;5.23;4.73;;;;;;;19.08;51.76;97802.84;5023225;28;20259;-24
2024/03/07 03:38:49;;;;;;;5.53;5.03;;;;;;;19.14;51.54;97805.66;5029488;28;20218;-24
2024/03/07 03:41:18;;;;;;;5.33;4.90;;;;;;;19.14;51.64;97805.66;5025989;28;20255;-25
2024/03/07 03:43:45;;;;;;;6.20;5.60;;;;;;;19.15;51.83;97804.81;5019682;28;20229;-24
2024/03/07 03:46:11;;;;;;;4.70;4.30;;;;;;;19.14;51.83;97802.22;5020793;28;20589;-24
2024/03/07 03:48:41;;;;;;;5.20;4.73;;;;;;;19.14;51.75;97804.75;5023703;28;20251;-24
2024/03/07 03:51:08;;;;;;;6.00;5.40;;;;;;;19.14;51.68;97799.66;5016715;28;20233;-24
2024/03/07 03:53:38;;;;;;;5.90;5.40;;;;;;;19.14;51.69;97808.19;5027689;28;20248;-24
2024/03/07 03:56:05;;;;;;;6.10;5.60;;;;;;;19.15;51.48;97806.50;5027045;28;20204;-24
2024/03/07 03:58:32;;;;;;;5.30;4.90;;;;;;;19.14;51.65;97807.31;5025557;28;20292;-24
2024/03/07 04:00:59;;;;;;;5.70;5.20;;;;;;;19.14;51.69;97800.56;5025547;28;20256;-24
2024/03/07 04:03:26;;;;;;;5.30;4.83;;;;;;;19.14;51.75;97800.56;5028396;28;20209;-25
2024/03/07 04:05:54;;;;;;;5.73;5.23;;;;;;;19.14;51.73;97803.09;5020594;28;20205;-24
2024/03/07 04:08:21;;;;;;;5.33;4.93;;;;;;;19.13;51.62;97808.13;5022566;28;20225;-25
2024/03/07 04:10:48;;;;;;;5.80;5.30;;;;;;;19.13;52.28;97810.69;5018177;28;20464;-25
2024/03/07 04:13:15;;;;;;;5.30;4.90;;;;;;;19.13;51.71;97803.03;5024843;28;20248;-24
2024/03/07 04:15:41;;;;;;;5.23;4.77;;;;;;;19.12;51.85;97801.28;5022687;28;20692;-24
2024/03/07 04:18:10;;;;;;;6.00;5.50;;;;;;;19.15;51.50;97803.94;5024345;28;20217;-25
2024/03/07 04:20:39;;;;;;;5.90;5.40;;;;;;;19.15;51.75;97806.50;5024450;28;20268;-25
2024/03/07 04:23:05;;;;;;;5.77;5.27;;;;;;;19.14;51.48;97800.56;5027935;28;20248;-25
2024/03/07 04:25:35;;;;;;;5.80;5.30;;;;;;;19.15;51.64;97799.72;5029422;28;20293;-24
2024/03/07 04:28:02;;;;;;;6.60;6.00;;;;;;;19.15;51.62;97801.41;5033709;28;20250;-25
2024/03/07 04:30:29;;;;;;;5.83;5.23;;;;;;;19.14;51.73;97800.56;5028199;28;20224;-25
2024/03/07 04:32:56;;;;;;;6.37;5.77;;;;;;;19.14;51.84;97803.09;5033650;28;20284;-25
2024/03/07 04:35:24;;;;;;;6.07;5.47;;;;;;;19.15;51.72;97801.41;5031134;28;20201;-24
2024/03/07 04:37:52;;;;;;;6.20;5.67;;;;;;;19.14;51.73;97795.47;5027440;28;20253;-25
2024/03/07 04:40:19;;;;;;;5.93;5.40;;;;;;;19.14;51.16;97800.56;5025299;28;20202;-25
2024/03/07 04:42:48;;;;;;;5.90;5.40;;;;;;;19.15;51.72;97798.84;5024444;28;20280;-24
2024/03/07 04:45:15;;;;;;;5.80;5.30;;;;;;;19.14;51.76;97795.47;5029041;28;20202;-23
2024/03/07 04:47:42;;;;;;;5.80;5.30;;;;;;;19.13;51.75;97798.78;5032681;28;20221;-24
2024/03/07 04:50:10;;;;;;;5.83;5.33;;;;;;;19.13;51.82;97797.94;5032720;28;20213;-25
2024/03/07 04:52:38;;;;;;;6.13;5.63;;;;;;;19.07;51.74;97784.94;5028091;28;20234;-25
2024/03/07 04:55:08;;;;;;;5.50;5.00;;;;;;;19.14;51.65;97797.13;5029571;28;20210;-26
2024/03/07 04:57:35;;;;;;;6.53;5.93;;;;;;;19.15;51.58;97801.41;5023754;28;20225;-24
2024/03/07 05:00:03;;;;;;;6.07;5.57;;;;;;;19.15;51.46;97809.03;5026001;28;20244;-23
2024/03/07 05:02:30;;;;;;;6.60;6.00;;;;;;;19.15;51.45;97797.19;5029547;28;20297;-25
2024/03/07 05:04:57;;;;;;;6.30;5.70;;;;;;;19.14;51.26;97800.56;5027196;28;20238;-24
2024/03/07 05:07:24;;;;;;;6.40;5.80;;;;;;;19.13;51.50;97796.25;5028973;28;20217;-25
2024/03/07 05:09:50;;;;;;;5.93;5.43;;;;;;;19.16;51.60;97805.72;5022553;28;20217;-25
2024/03/07 05:12:17;;;;;;;5.63;5.13;;;;;;;19.15;51.72;97802.28;5032653;28;20615;-25
2024/03/07 05:14:44;;;;;;;5.73;5.23;;;;;;;19.14;51.69;97805.66;5030261;28;20202;-25
2024/03/07 05:17:12;;;;;;;5.80;5.30;;;;;;;19.14;51.43;97795.47;5027181;28;20304;-25
2024/03/07 05:19:39;;;;;;;5.87;5.37;;;;;;;19.14;51.67;97794.56;5033149;28;20196;-25
2024/03/07 05:22:05;;;;;;;6.27;5.70;;;;;;;19.15;51.54;97803.94;5025358;28;20206;-25
2024/03/07 05:24:33;;;;;;;5.73;5.23;;;;;;;19.14;51.64;97805.66;5023137;28;20202;-25
2024/03/07 05:27:00;;;;;;;6.40;5.80;;;;;;;19.14;51.61;97808.19;5021747;28;20251;-24
2024/03/07 05:29:27;;;;;;;5.67;5.17;;;;;;;19.12;51.65;97802.16;5027041;28;20728;-25
2024/03/07 05:31:53;;;;;;;5.83;5.33;;;;;;;19.13;51.54;97808.97;5030196;28;20252;-27
2024/03/07 05:34:23;;;;;;;6.40;5.80;;;;;;;19.14;51.62;97804.75;5031712;28;20197;-25
2024/03/07 05:36:49;;;;;;;6.67;6.07;;;;;;;19.15;51.42;97809.03;5026319;28;20198;-25
2024/03/07 05:39:17;;;;;;;5.97;5.47;;;;;;;19.15;51.33;97807.38;5030047;28;20198;-25
2024/03/07 05:41:48;;;;;;;6.20;5.70;;;;;;;19.16;51.51;97805.72;5022685;28;20247;-24
2024/03/07 05:44:15;;;;;;;6.90;6.30;;;;;;;19.16;51.61;97808.25;5026946;28;20205;-25
2024/03/07 05:46:45;;;;;;;6.47;5.83;;;;;;;19.15;51.64;97809.03;5030176;28;20205;-25
2024/03/07 05:49:13;;;;;;;6.23;5.63;;;;;;;19.09;51.46;97796.91;5024847;28;20206;-25
2024/03/07 05:51:41;;;;;;;6.63;6.03;;;;;;;19.14;51.54;97805.66;5026878;28;20308;-24
2024/03/07 05:54:08;;;;;;;6.23;5.63;;;;;;;19.14;51.52;97807.31;5022253;28;20202;-24
2024/03/07 05:56:35;;;;;;;6.20;5.60;;;;;;;19.15;51.51;97815.03;5030587;28;20202;-24
2024/03/07 05:59:04;;;;;;;6.97;6.27;;;;;;;19.14;51.48;97814.94;5038132;22;20615;-25
2024/03/07 06:01:34;;;;;;;9.47;8.57;;;;;;;19.14;49.47;97814.94;5032298;28;20631;-25
2024/03/07 06:04:01;;;;;;;13.27;11.93;;;;;;;19.15;47.59;97811.59;5029406;28;20205;-25
2024/03/07 06:06:29;;;;;;;14.73;13.23;;;;;;;19.12;46.25;97812.34;5029374;28;20198;-25
2024/03/07 06:08:56;;;;;;;19.33;16.80;;;;;;;19.10;43.82;97810.53;5032948;28;20218;-25
2024/03/07 06:11:23;;;;;;;23.67;20.27;;;;;;;19.09;42.63;97807.13;5032051;28;20735;-25
2024/03/07 06:13:50;;;;;;;23.00;20.50;;;;;;;19.08;42.15;97813.03;5033364;28;20198;-25
2024/03/07 06:16:18;;;;;;;25.67;22.87;;;;;;;19.00;39.72;97798.19;5032989;28;20634;-25
2024/03/07 06:18:47;;;;;;;26.00;23.07;;;;;;;19.09;40.63;97811.31;5033297;28;20295;-25
2024/03/07 06:21:13;;;;;;;28.77;23.03;;;;;;;19.09;40.19;97817.31;5031772;28;21441;-29
2024/03/07 06:23:40;;;;;;;26.73;23.87;;;;;;;19.09;39.95;97814.75;5033398;28;20647;-30
2024/03/07 06:26:12;;;;;;;28.80;23.73;;;;;;;19.07;40.34;97810.41;5032700;28;20687;-25
2024/03/07 06:28:39;;;;;;;25.43;22.73;;;;;;;19.06;42.15;97812.06;5032901;28;20225;-25
2024/03/07 06:31:07;;;;;;;26.60;22.97;;;;;;;19.05;44.00;97815.44;5032766;28;20271;-25
2024/03/07 06:33:34;;;;;;;24.67;21.67;;;;;;;19.07;44.41;97815.50;5031577;28;20229;-25
2024/03/07 06:36:01;;;;;;;22.53;20.13;;;;;;;19.08;45.32;97813.03;5036286;28;20575;-25
2024/03/07 06:38:28;;;;;;;23.17;20.17;;;;;;;19.07;45.59;97811.25;5040636;28;20707;-27
2024/03/07 06:40:54;;;;;;;36.57;20.57;;;;;;;19.09;46.31;97813.88;5032672;28;20198;-25
2024/03/07 06:43:21;;;;;;;21.90;19.53;;;;;;;19.09;46.55;97816.41;5031954;28;20213;-28
2024/03/07 06:45:49;;;;;;;20.00;17.87;;;;;;;19.05;46.70;97807.78;5032660;28;20225;-25
2024/03/07 06:48:17;;;;;;;21.63;18.40;;;;;;;19.10;46.97;97820.72;5032283;28;20217;-25
2024/03/07 06:50:44;;;;;;;20.83;17.97;;;;;;;19.09;47.28;97827.50;5032497;28;20257;-25
2024/03/07 06:53:11;;;;;;;22.37;18.03;;;;;;;19.10;45.77;97826.69;5032528;28;20217;-25
2024/03/07 06:55:38;;;;;;;24.37;20.77;;;;;;;19.12;45.10;97831.84;5032225;28;20194;-25
2024/03/07 06:58:05;;;;;;;24.80;22.17;;;;;;;19.12;43.09;97819.97;5032565;28;20248;-25
2024/03/07 07:00:35;;;;;;;26.43;22.67;;;;;;;19.14;40.18;97825.16;5032306;28;20284;-25
2024/03/07 07:03:04;;;;;;;27.53;23.90;;;;;;;19.09;40.51;97809.66;5031523;28;20209;-31
2024/03/07 07:05:40;;;;;;;31.37;23.80;;;;;;;19.11;42.31;97827.56;5131300;27;21464;-27
2024/03/07 07:08:07;;;;;;;26.97;22.57;;;;;;;19.10;43.50;97828.38;5130139;28;20221;-27
2024/03/07 07:10:34;;;;;;;24.33;21.70;;;;;;;19.10;44.06;97828.38;5126111;28;20265;-27
2024/03/07 07:13:00;;;;;;;23.17;20.77;;;;;;;19.09;44.85;97819.84;5113740;28;20212;-29
2024/03/07 07:15:27;;;;;;;26.90;21.30;;;;;;;19.11;45.16;97814.81;5101530;28;20205;-27
2024/03/07 07:17:53;;;;;;;22.00;19.57;;;;;;;19.10;45.88;97813.94;5124224;28;20246;-28
2024/03/07 07:20:20;;;;;;;22.37;18.90;;;;;;;19.10;46.31;97820.72;5126011;28;20199;-28
2024/03/07 07:22:47;;;;;;;21.60;19.30;;;;;;;19.08;46.46;97815.56;5127072;28;20236;-27
2024/03/07 07:25:14;;;;;;;21.90;18.37;;;;;;;19.09;46.77;97818.97;5121140;28;20309;-27
2024/03/07 07:27:42;;;;;;;19.40;17.47;;;;;;;19.09;46.84;97813.88;5126768;28;20505;-26
2024/03/07 07:30:10;;;;;;;20.07;17.70;;;;;;;19.08;46.80;97820.66;5121047;28;20207;-28
2024/03/07 07:32:37;;;;;;;20.60;18.13;;;;;;;19.09;46.99;97819.84;5129461;28;20234;-32
2024/03/07 07:35:09;;;;;;;19.67;17.57;;;;;;;19.10;46.90;97820.72;5124667;28;20265;-27
2024/03/07 07:37:39;;;;;;;19.03;16.83;;;;;;;19.11;47.33;97815.72;5123381;28;20664;-31
2024/03/07 07:40:14;;;;;;;18.43;16.40;;;;;;;19.11;47.52;97817.38;5119894;28;20602;-28
2024/03/07 07:42:41;;;;;;;21.00;15.47;;;;;;;19.13;46.75;97810.69;5116214;28;20238;-27
2024/03/07 07:45:12;;;;;;;17.50;15.60;;;;;;;19.13;47.14;97815.78;5113820;28;20276;-27
2024/03/07 07:47:49;;;;;;;18.33;16.27;;;;;;;19.13;47.46;97808.13;5118596;28;20255;-31
2024/03/07 07:50:18;;;;;;;18.87;15.37;;;;;;;19.14;47.64;97812.41;5125979;28;20237;-27
2024/03/07 07:52:53;;;;;;;17.27;15.47;;;;;;;19.15;47.77;97814.13;5125349;28;20213;-26
2024/03/07 07:55:20;;;;;;;16.23;14.53;;;;;;;19.13;47.87;97811.53;5127802;28;20202;-34
2024/03/07 07:57:49;;;;;;;16.23;14.17;;;;;;;19.13;47.86;97808.13;5126382;28;20273;-30
2024/03/07 08:00:23;;;;;;;15.30;13.70;;;;;;;19.09;48.09;97796.03;5124039;28;20243;-30
2024/03/07 08:02:54;;;;;;;15.87;14.17;;;;;;;19.14;48.08;97805.66;5124363;28;20228;-28
2024/03/07 08:05:22;;;;;;;15.20;13.20;;;;;;;19.14;48.01;97808.19;5120175;28;20630;-29
2024/03/07 08:07:53;;;;;;;15.80;13.77;;;;;;;19.15;48.27;97815.03;5122614;28;20230;-32
2024/03/07 08:10:20;;;;;;;18.90;14.43;;;;;;;19.14;48.39;97812.41;5121775;28;20578;-30
2024/03/07 08:12:48;;;;;;;15.30;13.70;;;;;;;19.15;47.94;97814.13;5127227;28;20207;-28
2024/03/07 08:15:15;;;;;;;16.03;14.43;;;;;;;19.15;48.70;97809.94;5122424;28;20195;-27
2024/03/07 08:17:42;;;;;;;15.47;13.90;;;;;;;19.18;48.49;97811.72;5113226;28;20223;-26
2024/03/07 08:20:13;;;;;;;13.53;12.13;;;;;;;19.17;48.73;97815.97;5106947;28;20194;-29
2024/03/07 08:22:40;;;;;;;13.47;12.07;;;;;;;19.16;48.61;97808.25;5105957;28;20207;-28
2024/03/07 08:25:14;;;;;;;13.60;11.90;;;;;;;19.17;48.67;97803.22;5108823;28;20242;-36
2024/03/07 08:27:41;;;;;;;13.93;12.50;;;;;;;19.17;48.76;97813.41;5107461;28;20242;-38
2024/03/07 08:30:15;;;;;;;12.57;11.37;;;;;;;19.17;48.78;97800.69;5113197;28;20301;-27
2024/03/07 08:32:46;;;;;;;14.43;11.67;;;;;;;19.20;48.79;97799.94;5113318;28;20286;-31
2024/03/07 08:35:12;;;;;;;13.50;12.10;;;;;;;19.21;48.91;97804.22;5098878;28;20245;-35
2024/03/07 08:37:39;;;;;;;13.60;12.20;;;;;;;19.21;49.07;97802.53;5097843;28;20231;-30
2024/03/07 08:40:07;;;;;;;12.57;11.27;;;;;;;19.21;48.95;97800.00;5103968;28;20662;-29
2024/03/07 08:42:34;;;;;;;12.93;11.53;;;;;;;19.21;49.19;97796.56;5105474;28;20234;-29
2024/03/07 08:45:04;;;;;;;13.17;11.73;;;;;;;19.21;49.12;97791.47;5087943;28;20215;-28
2024/03/07 08:47:34;;;;;;;13.80;11.67;;;;;;;19.20;49.19;97784.66;5108933;28;20219;-27
2024/03/07 08:50:02;;;;;;;15.00;11.47;;;;;;;19.21;48.93;97786.38;5112024;28;20665;-27
2024/03/07 08:52:28;;;;;;;12.27;11.03;;;;;;;19.20;48.93;97785.53;5113195;28;20238;-31
2024/03/07 08:54:55;;;;;;;12.43;11.03;;;;;;;19.20;49.10;97788.06;5112717;28;20191;-28
2024/03/07 08:57:22;;;;;;;13.23;11.03;;;;;;;19.21;49.28;97789.81;5112649;28;20563;-26
2024/03/07 08:59:48;;;;;;;11.27;10.13;;;;;;;19.22;49.09;97786.44;5112974;28;20203;-28
2024/03/07 09:02:15;;;;;;;12.17;10.97;;;;;;;19.23;49.26;97780.56;5106780;28;20247;-42
2024/03/07 09:04:42;;;;;;;13.87;11.73;;;;;;;19.23;49.37;97784.78;5106876;28;20251;-27
2024/03/07 09:07:09;;;;;;;11.07;9.97;;;;;;;19.22;49.21;97781.34;5109827;28;20339;-29
2024/03/07 09:09:35;;;;;;;11.20;10.10;;;;;;;19.22;49.37;97773.69;5103531;28;20203;-27
2024/03/07 09:12:02;;;;;;;11.50;10.13;;;;;;;19.22;49.34;97773.69;5111230;28;20203;-28
2024/03/07 09:14:29;;;;;;;11.00;9.90;;;;;;;19.23;49.25;97780.56;5102052;28;20224;-28
2024/03/07 09:16:56;;;;;;;12.40;10.93;;;;;;;19.23;49.49;97780.56;5107745;28;20251;-29
2024/03/07 09:19:27;;;;;;;10.83;9.73;;;;;;;19.23;49.74;97778.00;5111839;28;20223;-29
2024/03/07 09:21:54;;;;;;;10.87;9.87;;;;;;;19.21;49.49;97777.06;5107866;28;20203;-28
2024/03/07 09:24:23;;;;;;;10.40;9.30;;;;;;;19.22;49.46;97778.78;5112797;28;20222;-37
2024/03/07 09:26:51;;;;;;;10.90;9.80;;;;;;;19.21;49.38;97766.88;5112730;28;20203;-28
2024/03/07 09:29:20;;;;;;;11.23;10.13;;;;;;;19.22;49.66;97766.06;5107156;28;20222;-26
2024/03/07 09:31:48;;;;;;;11.03;9.93;;;;;;;19.23;49.43;97774.59;5106017;28;20301;-27
2024/03/07 09:34:16;;;;;;;11.00;9.83;;;;;;;19.23;49.41;97767.81;5083356;28;20535;-27
2024/03/07 09:36:42;;;;;;;10.93;9.87;;;;;;;19.24;49.64;97773.75;5112803;28;20222;-29
2024/03/07 09:39:09;;;;;;;9.67;8.73;;;;;;;19.23;49.47;97778.00;5108619;28;20292;-28
2024/03/07 09:41:36;;;;;;;10.63;9.53;;;;;;;19.22;49.61;97770.31;5107741;28;20230;-26
2024/03/07 09:44:03;;;;;;;11.40;9.87;;;;;;;19.21;49.70;97771.97;5112627;28;20199;-30
2024/03/07 09:46:30;;;;;;;11.00;9.90;;;;;;;19.16;49.75;97760.69;5071329;28;20634;-26
2024/03/07 09:48:58;;;;;;;9.87;8.87;;;;;;;19.22;49.58;97777.94;5089001;28;20762;-31
2024/03/07 09:51:25;;;;;;;10.23;9.00;;;;;;;19.21;49.75;97773.63;5108408;28;20221;-31
2024/03/07 09:53:52;;;;;;;9.90;8.90;;;;;;;19.21;49.64;97774.50;5111821;28;20203;-37
2024/03/07 09:56:22;;;;;;;10.50;9.17;;;;;;;19.21;49.66;97778.72;5083194;28;20199;-28
2024/03/07 09:58:50;;;;;;;10.03;9.03;;;;;;;19.20;49.62;97775.34;5111222;28;20314;-28
2024/03/07 10:01:21;;;;;;;9.40;8.40;;;;;;;19.21;49.73;97782.16;5102566;28;20689;-26
2024/03/07 10:03:48;;;;;;;10.37;9.27;;;;;;;19.21;49.67;97774.50;5105271;27;20344;-27
2024/03/07 10:06:15;;;;;;;9.77;8.77;;;;;;;19.15;49.78;97763.19;5101555;28;20343;-29
2024/03/07 10:08:42;;;;;;;10.43;8.63;;;;;;;19.23;49.90;97777.13;5097367;28;20273;-38
2024/03/07 10:11:09;;;;;;;10.23;9.23;;;;;;;19.23;49.74;97778.00;5080716;28;20214;-26
2024/03/07 10:13:36;;;;;;;11.17;8.90;;;;;;;19.23;49.80;97782.22;5109013;28;20198;-29
2024/03/07 10:16:04;;;;;;;9.67;8.67;;;;;;;19.21;49.78;97776.19;5100841;28;20206;-30
2024/03/07 10:18:31;;;;;;;9.47;8.50;;;;;;;19.21;49.81;97779.63;5098455;28;20226;-27
2024/03/07 10:20:59;;;;;;;9.67;8.67;;;;;;;19.21;49.95;97771.97;5089145;28;20206;-31
2024/03/07 10:23:27;;;;;;;9.23;8.33;;;;;;;19.21;49.99;97777.06;5109209;28;20279;-29
2024/03/07 10:25:55;;;;;;;9.23;8.10;;;;;;;19.20;49.89;97780.44;5102698;27;20313;-27
2024/03/07 10:28:21;;;;;;;8.73;7.83;;;;;;;19.19;49.48;97775.28;5106187;28;20232;-27
2024/03/07 10:30:50;;;;;;;9.07;8.17;;;;;;;19.19;50.21;97768.47;5108707;27;20203;-39
2024/03/07 10:33:17;;;;;;;10.77;7.97;;;;;;;19.19;49.90;97773.56;5092696;27;20203;-35
2024/03/07 10:35:49;;;;;;;8.10;7.30;;;;;;;19.20;49.98;97772.78;5101974;28;20191;-29
2024/03/07 10:38:18;;;;;;;10.63;8.00;;;;;;;19.20;50.13;97760.03;5103434;28;20314;-26
2024/03/07 10:40:47;;;;;;;9.60;8.33;;;;;;;19.22;50.18;97757.56;5099000;28;20580;-29
2024/03/07 10:43:17;;;;;;;9.10;8.07;;;;;;;19.22;50.09;97763.50;5109103;28;20195;-42
2024/03/07 10:45:47;;;;;;;10.37;7.80;;;;;;;19.22;50.19;97762.66;5104761;28;20278;-37
2024/03/07 10:48:19;;;;;;;8.63;7.80;;;;;;;19.22;50.23;97768.59;5103560;28;20216;-28
2024/03/07 10:51:33;;;;;;;9.00;8.10;;;;;;;19.22;50.18;97757.56;5107115;28;20676;-29
2024/03/07 10:54:15;;;;;;;8.33;7.43;;;;;;;19.19;49.99;97754.88;5030825;28;20201;-31
2024/03/07 10:56:45;;;;;;;8.40;7.50;;;;;;;19.23;50.35;97759.28;5070385;28;20251;-30
2024/03/07 10:59:19;;;;;;;8.27;7.00;;;;;;;19.20;50.19;97754.06;5106104;28;20219;-29
2024/03/07 11:01:55;;;;;;;8.00;7.20;;;;;;;19.21;50.13;97751.59;5109201;28;20286;-27
2024/03/07 11:04:22;;;;;;;7.77;7.07;;;;;;;19.21;50.19;97755.81;5107781;28;20681;-29
2024/03/07 11:06:49;;;;;;;7.87;7.07;;;;;;;19.21;50.24;97756.69;5109712;28;20225;-28
2024/03/07 11:09:22;;;;;;;7.83;7.00;;;;;;;19.21;49.91;97756.69;5104746;28;20359;-27
2024/03/07 11:11:49;;;;;;;7.73;7.00;;;;;;;19.22;50.22;97757.56;5091623;28;20199;-28
2024/03/07 11:14:16;;;;;;;8.10;7.20;;;;;;;19.17;50.03;97748.84;5110239;28;20593;-29
2024/03/07 11:16:43;;;;;;;8.07;7.13;;;;;;;19.21;50.24;97750.72;5071041;28;20199;-28
2024/03/07 11:19:29;;;;;;;7.37;6.67;;;;;;;19.20;50.35;97748.97;5103047;28;20264;-29
2024/03/07 11:21:56;;;;;;;8.10;7.33;;;;;;;19.19;50.47;97742.16;5104943;28;20203;-32
2024/03/07 11:24:28;;;;;;;7.90;7.10;;;;;;;19.20;50.45;97751.53;5092418;28;20214;-27
2024/03/07 11:26:55;;;;;;;7.97;7.17;;;;;;;19.20;50.47;97746.44;5108674;28;20199;-27
2024/03/07 11:29:56;;;;;;;8.20;7.10;;;;;;;19.20;50.67;97729.47;5110765;28;20226;-27
2024/03/07 11:32:23;;;;;;;8.03;7.23;;;;;;;19.22;50.74;97732.09;5083362;28;20207;-27